sensor_id;sensor_type;location;lat;lon;timestamp;pressure;altitude;pressure_sealevel;temperature;humidity
70304;BME280;57712;48.752;11.348;2023-05-10T00:00:55;96917.59;;;15.21;100.00
70304;BME280;57712;48.752;11.348;2023-05-10T00:03:21;96921.78;;;14.89;100.00
70304;BME280;57712;48.752;11.348;2023-05-10T00:05:49;96915.97;;;14.87;100.00
70304;BME280;57712;48.752;11.348;2023-05-10T00:08:15;96918.75;;;14.68;100.00
70304;BME280;57712;48.752;11.348;2023-05-10T00:10:42;96922.59;;;14.80;100.00
70304;BME280;57712;48.752;11.348;2023-05-10T00:13:09;96925.97;;;14.66;100.00
70304;BME280;57712;48.752;11.348;2023-05-10T00:15:35;96929.00;;;14.59;100.00
70304;BME280;57712;48.752;11.348;2023-05-10T00:18:02;96936.84;;;14.60;100.00
70304;BME280;57712;48.752;11.348;2023-05-10T00:20:29;96933.09;;;14.36;100.00
70304;BME280;57712;48.752;11.348;2023-05-10T00:22:56;96924.41;;;14.28;100.00
70304;BME280;57712;48.752;11.348;2023-05-10T00:25:22;96924.53;;;14.25;100.00
70304;BME280;57712;48.752;11.348;2023-05-10T00:27:49;96930.69;;;14.47;100.00
70304;BME280;57712;48.752;11.348;2023-05-10T00:30:16;96929.44;;;14.39;100.00
70304;BME280;57712;48.752;11.348;2023-05-10T00:32:43;96919.78;;;14.25;100.00
70304;BME280;57712;48.752;11.348;2023-05-10T00:35:10;96924.22;;;14.32;100.00
70304;BME280;57712;48.752;11.348;2023-05-10T00:37:37;96919.94;;;14.31;100.00
70304;BME280;57712;48.752;11.348;2023-05-10T00:40:05;96923.59;;;14.09;100.00
70304;BME280;57712;48.752;11.348;2023-05-10T00:42:31;96926.63;;;14.02;100.00
70304;BME280;57712;48.752;11.348;2023-05-10T00:44:58;96924.06;;;14.08;100.00
70304;BME280;57712;48.752;11.348;2023-05-10T00:47:25;96920.34;;;14.02;100.00
70304;BME280;57712;48.752;11.348;2023-05-10T00:49:52;96918.84;;;14.10;100.00
70304;BME280;57712;48.752;11.348;2023-05-10T00:52:19;96913.91;;;13.96;100.00
70304;BME280;57712;48.752;11.348;2023-05-10T00:54:46;96915.47;;;13.97;100.00
70304;BME280;57712;48.752;11.348;2023-05-10T00:57:14;96908.41;;;13.96;100.00
70304;BME280;57712;48.752;11.348;2023-05-10T00:59:41;96918.53;;;13.99;100.00
70304;BME280;57712;48.752;11.348;2023-05-10T01:02:08;96907.19;;;14.06;100.00
70304;BME280;57712;48.752;11.348;2023-05-10T01:04:35;96918.22;;;14.06;100.00
70304;BME280;57712;48.752;11.348;2023-05-10T01:07:02;96914.38;;;13.94;100.00
70304;BME280;57712;48.752;11.348;2023-05-10T01:09:28;96919.41;;;13.96;100.00
70304;BME280;57712;48.752;11.348;2023-05-10T01:11:56;96912.84;;;14.02;100.00
70304;BME280;57712;48.752;11.348;2023-05-10T01:14:23;96917.28;;;14.00;100.00
70304;BME280;57712;48.752;11.348;2023-05-10T01:16:49;96917.00;;;14.07;100.00
70304;BME280;57712;48.752;11.348;2023-05-10T01:27:20;96913.94;;;14.14;100.00
70304;BME280;57712;48.752;11.348;2023-05-10T01:35:40;96912.56;;;14.09;100.00
70304;BME280;57712;48.752;11.348;2023-05-10T01:41:19;96913.34;;;14.10;100.00
70304;BME280;57712;48.752;11.348;2023-05-10T01:46:37;96907.84;;;14.10;100.00
70304;BME280;57712;48.752;11.348;2023-05-10T01:49:14;96909.34;;;14.11;100.00
70304;BME280;57712;48.752;11.348;2023-05-10T01:51:45;96913.47;;;14.15;100.00
70304;BME280;57712;48.752;11.348;2023-05-10T01:54:14;96909.97;;;14.15;100.00
70304;BME280;57712;48.752;11.348;2023-05-10T01:56:43;96915.78;;;14.08;100.00
70304;BME280;57712;48.752;11.348;2023-05-10T01:59:15;96923.28;;;14.07;100.00
70304;BME280;57712;48.752;11.348;2023-05-10T02:01:45;96919.47;;;14.14;100.00
70304;BME280;57712;48.752;11.348;2023-05-10T02:04:15;96922.66;;;14.03;100.00
70304;BME280;57712;48.752;11.348;2023-05-10T02:06:43;96921.41;;;14.04;100.00
70304;BME280;57712;48.752;11.348;2023-05-10T02:09:12;96921.72;;;14.06;100.00
70304;BME280;57712;48.752;11.348;2023-05-10T02:11:41;96923.72;;;14.06;100.00
70304;BME280;57712;48.752;11.348;2023-05-10T02:14:10;96919.75;;;13.98;100.00
70304;BME280;57712;48.752;11.348;2023-05-10T02:16:38;96920.66;;;14.04;100.00
70304;BME280;57712;48.752;11.348;2023-05-10T02:19:08;96916.09;;;14.10;100.00
70304;BME280;57712;48.752;11.348;2023-05-10T02:21:39;96924.97;;;14.14;100.00
70304;BME280;57712;48.752;11.348;2023-05-10T02:24:07;96919.47;;;14.14;100.00
70304;BME280;57712;48.752;11.348;2023-05-10T02:26:35;96913.78;;;13.99;100.00
70304;BME280;57712;48.752;11.348;2023-05-10T02:29:03;96924.69;;;14.21;100.00
70304;BME280;57712;48.752;11.348;2023-05-10T02:31:32;96924.34;;;14.10;100.00
70304;BME280;57712;48.752;11.348;2023-05-10T02:34:00;96928.34;;;14.18;100.00
70304;BME280;57712;48.752;11.348;2023-05-10T02:36:28;96923.88;;;14.02;100.00
70304;BME280;57712;48.752;11.348;2023-05-10T02:38:56;96926.50;;;14.15;100.00
70304;BME280;57712;48.752;11.348;2023-05-10T02:41:25;96923.13;;;14.11;100.00
70304;BME280;57712;48.752;11.348;2023-05-10T02:43:57;96927.88;;;14.10;100.00
70304;BME280;57712;48.752;11.348;2023-05-10T02:46:26;96923.44;;;14.13;100.00
70304;BME280;57712;48.752;11.348;2023-05-10T02:48:52;96918.09;;;14.09;100.00
70304;BME280;57712;48.752;11.348;2023-05-10T02:51:20;96927.72;;;14.14;100.00
70304;BME280;57712;48.752;11.348;2023-05-10T02:53:53;96918.22;;;14.06;100.00
70304;BME280;57712;48.752;11.348;2023-05-10T02:56:35;96924.03;;;14.17;100.00
70304;BME280;57712;48.752;11.348;2023-05-10T02:59:02;96924.34;;;14.10;100.00
70304;BME280;57712;48.752;11.348;2023-05-10T03:01:29;96927.72;;;14.14;100.00
70304;BME280;57712;48.752;11.348;2023-05-10T03:03:56;96927.09;;;14.01;100.00
70304;BME280;57712;48.752;11.348;2023-05-10T03:06:22;96936.25;;;13.89;100.00
70304;BME280;57712;48.752;11.348;2023-05-10T03:08:49;96930.59;;;14.01;100.00
70304;BME280;57712;48.752;11.348;2023-05-10T03:13:58;96932.59;;;14.01;100.00
70304;BME280;57712;48.752;11.348;2023-05-10T03:16:35;96933.06;;;13.99;100.00
70304;BME280;57712;48.752;11.348;2023-05-10T03:19:32;96936.13;;;14.01;100.00
70304;BME280;57712;48.752;11.348;2023-05-10T03:22:03;96936.84;;;13.93;100.00
70304;BME280;57712;48.752;11.348;2023-05-10T03:24:35;96937.13;;;13.85;100.00
70304;BME280;57712;48.752;11.348;2023-05-10T03:27:03;96932.84;;;13.84;100.00
70304;BME280;57712;48.752;11.348;2023-05-10T03:29:31;96943.09;;;13.84;100.00
70304;BME280;57712;48.752;11.348;2023-05-10T03:31:58;96934.38;;;13.76;100.00
70304;BME280;57712;48.752;11.348;2023-05-10T03:34:26;96933.75;;;13.81;100.00
70304;BME280;57712;48.752;11.348;2023-05-10T03:36:52;96948.13;;;13.76;100.00
70304;BME280;57712;48.752;11.348;2023-05-10T03:39:19;96950.38;;;13.69;100.00
70304;BME280;57712;48.752;11.348;2023-05-10T03:41:47;96956.16;;;13.62;100.00
70304;BME280;57712;48.752;11.348;2023-05-10T03:44:14;96956.47;;;13.64;100.00
70304;BME280;57712;48.752;11.348;2023-05-10T03:46:40;96955.94;;;13.47;100.00
70304;BME280;57712;48.752;11.348;2023-05-10T03:49:07;96957.19;;;13.46;100.00
70304;BME280;57712;48.752;11.348;2023-05-10T03:51:34;96964.56;;;13.58;100.00
70304;BME280;57712;48.752;11.348;2023-05-10T03:54:01;96968.09;;;13.58;100.00
70304;BME280;57712;48.752;11.348;2023-05-10T03:56:27;96968.38;;;13.61;100.00
70304;BME280;57712;48.752;11.348;2023-05-10T03:58:54;96963.50;;;13.55;100.00
70304;BME280;57712;48.752;11.348;2023-05-10T04:01:23;96975.25;;;13.56;100.00
70304;BME280;57712;48.752;11.348;2023-05-10T04:03:49;96969.88;;;13.52;100.00
70304;BME280;57712;48.752;11.348;2023-05-10T04:06:16;96959.94;;;13.46;100.00
70304;BME280;57712;48.752;11.348;2023-05-10T04:08:43;96961.97;;;13.33;100.00
70304;BME280;57712;48.752;11.348;2023-05-10T04:11:11;96968.38;;;13.29;100.00
70304;BME280;57712;48.752;11.348;2023-05-10T04:13:38;96969.66;;;13.38;100.00
70304;BME280;57712;48.752;11.348;2023-05-10T04:16:05;96968.97;;;13.24;100.00
70304;BME280;57712;48.752;11.348;2023-05-10T04:18:32;96969.13;;;13.08;100.00
70304;BME280;57712;48.752;11.348;2023-05-10T04:20:58;96977.34;;;13.21;100.00
70304;BME280;57712;48.752;11.348;2023-05-10T04:23:25;96972.50;;;13.12;100.00
70304;BME280;57712;48.752;11.348;2023-05-10T04:25:59;96977.22;;;13.24;100.00
70304;BME280;57712;48.752;11.348;2023-05-10T04:28:25;96985.91;;;13.23;100.00
70304;BME280;57712;48.752;11.348;2023-05-10T04:31:00;96986.81;;;13.20;100.00
70304;BME280;57712;48.752;11.348;2023-05-10T04:33:27;96983.66;;;13.09;100.00
70304;BME280;57712;48.752;11.348;2023-05-10T04:35:54;96988.84;;;13.28;100.00
70304;BME280;57712;48.752;11.348;2023-05-10T04:38:20;96988.34;;;13.21;100.00
70304;BME280;57712;48.752;11.348;2023-05-10T04:40:47;96990.66;;;13.22;100.00
70304;BME280;57712;48.752;11.348;2023-05-10T04:43:14;96989.97;;;13.18;100.00
70304;BME280;57712;48.752;11.348;2023-05-10T04:45:41;96987.38;;;13.15;100.00
70304;BME280;57712;48.752;11.348;2023-05-10T04:48:08;96992.56;;;13.35;100.00
70304;BME280;57712;48.752;11.348;2023-05-10T04:50:36;96997.47;;;13.18;100.00
70304;BME280;57712;48.752;11.348;2023-05-10T04:53:03;96993.94;;;13.17;100.00
70304;BME280;57712;48.752;11.348;2023-05-10T04:55:30;97007.50;;;13.24;100.00
70304;BME280;57712;48.752;11.348;2023-05-10T04:57:56;96999.25;;;13.12;100.00
70304;BME280;57712;48.752;11.348;2023-05-10T05:00:23;97014.22;;;13.23;100.00
70304;BME280;57712;48.752;11.348;2023-05-10T05:02:51;97008.06;;;13.19;100.00
70304;BME280;57712;48.752;11.348;2023-05-10T05:05:18;97016.09;;;13.14;100.00
70304;BME280;57712;48.752;11.348;2023-05-10T05:07:44;97008.13;;;13.28;100.00
70304;BME280;57712;48.752;11.348;2023-05-10T05:10:11;97012.41;;;13.29;100.00
70304;BME280;57712;48.752;11.348;2023-05-10T05:12:37;97020.97;;;13.32;100.00
70304;BME280;57712;48.752;11.348;2023-05-10T05:15:04;97014.31;;;13.20;100.00
70304;BME280;57712;48.752;11.348;2023-05-10T05:17:34;97004.31;;;13.13;100.00
70304;BME280;57712;48.752;11.348;2023-05-10T05:20:01;97005.84;;;13.14;100.00
70304;BME280;57712;48.752;11.348;2023-05-10T05:22:28;97005.19;;;13.10;100.00
70304;BME280;57712;48.752;11.348;2023-05-10T05:24:55;97017.94;;;13.17;100.00
70304;BME280;57712;48.752;11.348;2023-05-10T05:27:22;97017.84;;;13.20;100.00
70304;BME280;57712;48.752;11.348;2023-05-10T05:29:55;97021.47;;;13.17;100.00
70304;BME280;57712;48.752;11.348;2023-05-10T05:32:23;97026.31;;;13.13;100.00
70304;BME280;57712;48.752;11.348;2023-05-10T05:34:51;97031.16;;;13.09;100.00
70304;BME280;57712;48.752;11.348;2023-05-10T05:37:19;97034.22;;;13.11;100.00
70304;BME280;57712;48.752;11.348;2023-05-10T05:39:47;97017.09;;;13.07;100.00
70304;BME280;57712;48.752;11.348;2023-05-10T05:42:14;97034.56;;;13.13;100.00
70304;BME280;57712;48.752;11.348;2023-05-10T05:44:42;97032.84;;;13.07;100.00
70304;BME280;57712;48.752;11.348;2023-05-10T05:47:09;97033.06;;;12.99;100.00
70304;BME280;57712;48.752;11.348;2023-05-10T05:49:36;97042.16;;;13.09;100.00
70304;BME280;57712;48.752;11.348;2023-05-10T05:52:03;97036.41;;;12.94;100.00
70304;BME280;57712;48.752;11.348;2023-05-10T05:54:31;97048.03;;;12.98;100.00
70304;BME280;57712;48.752;11.348;2023-05-10T05:56:58;97041.47;;;12.96;100.00
70304;BME280;57712;48.752;11.348;2023-05-10T05:59:26;97043.38;;;13.08;100.00
70304;BME280;57712;48.752;11.348;2023-05-10T06:01:53;97045.53;;;13.26;100.00
70304;BME280;57712;48.752;11.348;2023-05-10T06:04:20;97050.28;;;13.25;100.00
70304;BME280;57712;48.752;11.348;2023-05-10T06:06:48;97053.84;;;13.13;100.00
70304;BME280;57712;48.752;11.348;2023-05-10T06:09:14;97058.44;;;13.16;100.00
70304;BME280;57712;48.752;11.348;2023-05-10T06:11:41;97049.34;;;13.07;100.00
70304;BME280;57712;48.752;11.348;2023-05-10T06:14:08;97060.16;;;13.23;100.00
70304;BME280;57712;48.752;11.348;2023-05-10T06:16:35;97067.00;;;13.18;100.00
70304;BME280;57712;48.752;11.348;2023-05-10T06:19:02;97077.69;;;13.16;100.00
70304;BME280;57712;48.752;11.348;2023-05-10T06:21:29;97070.09;;;13.20;100.00
70304;BME280;57712;48.752;11.348;2023-05-10T06:23:56;97078.00;;;13.18;100.00
70304;BME280;57712;48.752;11.348;2023-05-10T06:26:23;97075.72;;;13.39;100.00
70304;BME280;57712;48.752;11.348;2023-05-10T06:28:49;97091.09;;;13.49;100.00
70304;BME280;57712;48.752;11.348;2023-05-10T06:31:16;97086.50;;;13.46;100.00
70304;BME280;57712;48.752;11.348;2023-05-10T06:33:43;97081.25;;;13.39;100.00
70304;BME280;57712;48.752;11.348;2023-05-10T06:36:10;97084.97;;;13.45;100.00
70304;BME280;57712;48.752;11.348;2023-05-10T06:38:36;97069.84;;;13.27;100.00
70304;BME280;57712;48.752;11.348;2023-05-10T06:41:03;97087.22;;;13.90;100.00
70304;BME280;57712;48.752;11.348;2023-05-10T06:43:30;97075.19;;;13.97;100.00
70304;BME280;57712;48.752;11.348;2023-05-10T06:45:57;97078.28;;;14.08;100.00
70304;BME280;57712;48.752;11.348;2023-05-10T06:48:24;97070.78;;;14.08;100.00
70304;BME280;57712;48.752;11.348;2023-05-10T06:50:50;97071.88;;;14.11;100.00
70304;BME280;57712;48.752;11.348;2023-05-10T06:53:17;97079.97;;;14.14;100.00
70304;BME280;57712;48.752;11.348;2023-05-10T06:55:44;97073.91;;;13.89;100.00
70304;BME280;57712;48.752;11.348;2023-05-10T06:58:10;97068.25;;;13.92;100.00
70304;BME280;57712;48.752;11.348;2023-05-10T07:00:37;97074.28;;;14.00;100.00
70304;BME280;57712;48.752;11.348;2023-05-10T07:03:07;97073.50;;;13.99;100.00
70304;BME280;57712;48.752;11.348;2023-05-10T07:05:33;97081.66;;;14.12;100.00
70304;BME280;57712;48.752;11.348;2023-05-10T07:08:00;97080.22;;;14.29;100.00
70304;BME280;57712;48.752;11.348;2023-05-10T07:10:27;97077.97;;;14.46;100.00
70304;BME280;57712;48.752;11.348;2023-05-10T07:12:54;97084.00;;;14.54;100.00
70304;BME280;57712;48.752;11.348;2023-05-10T07:15:21;97072.88;;;14.35;100.00
70304;BME280;57712;48.752;11.348;2023-05-10T07:17:48;97073.13;;;14.50;100.00
70304;BME280;57712;48.752;11.348;2023-05-10T07:20:15;97058.94;;;15.07;100.00
70304;BME280;57712;48.752;11.348;2023-05-10T07:22:41;97075.63;;;15.40;100.00
70304;BME280;57712;48.752;11.348;2023-05-10T07:25:08;97082.09;;;15.27;100.00
70304;BME280;57712;48.752;11.348;2023-05-10T07:27:35;97077.91;;;14.77;100.00
70304;BME280;57712;48.752;11.348;2023-05-10T07:30:01;97082.84;;;15.19;100.00
70304;BME280;57712;48.752;11.348;2023-05-10T07:32:28;97077.50;;;15.15;100.00
70304;BME280;57712;48.752;11.348;2023-05-10T07:34:55;97085.31;;;15.26;100.00
70304;BME280;57712;48.752;11.348;2023-05-10T07:37:22;97081.63;;;15.01;100.00
70304;BME280;57712;48.752;11.348;2023-05-10T07:39:49;97086.06;;;15.17;100.00
70304;BME280;57712;48.752;11.348;2023-05-10T07:42:15;97085.97;;;14.53;100.00
70304;BME280;57712;48.752;11.348;2023-05-10T07:44:42;97087.25;;;14.70;100.00
70304;BME280;57712;48.752;11.348;2023-05-10T07:47:09;97085.53;;;14.55;100.00
70304;BME280;57712;48.752;11.348;2023-05-10T07:49:36;97094.56;;;14.55;100.00
70304;BME280;57712;48.752;11.348;2023-05-10T07:52:03;97090.13;;;14.58;100.00
70304;BME280;57712;48.752;11.348;2023-05-10T07:54:29;97097.22;;;14.77;100.00
70304;BME280;57712;48.752;11.348;2023-05-10T07:56:57;97090.31;;;14.72;100.00
70304;BME280;57712;48.752;11.348;2023-05-10T07:59:23;97099.34;;;14.73;100.00
70304;BME280;57712;48.752;11.348;2023-05-10T08:01:50;97091.13;;;15.28;100.00
70304;BME280;57712;48.752;11.348;2023-05-10T08:04:16;97084.97;;;15.42;100.00
70304;BME280;57712;48.752;11.348;2023-05-10T08:06:43;97089.91;;;15.75;100.00
70304;BME280;57712;48.752;11.348;2023-05-10T08:09:10;97086.38;;;16.26;100.00
70304;BME280;57712;48.752;11.348;2023-05-10T08:11:37;97089.09;;;15.83;100.00
70304;BME280;57712;48.752;11.348;2023-05-10T08:14:04;97083.47;;;15.05;100.00
70304;BME280;57712;48.752;11.348;2023-05-10T08:16:30;97095.59;;;15.16;100.00
70304;BME280;57712;48.752;11.348;2023-05-10T08:18:58;97086.38;;;14.92;100.00
70304;BME280;57712;48.752;11.348;2023-05-10T08:21:26;97094.94;;;14.85;100.00
70304;BME280;57712;48.752;11.348;2023-05-10T08:23:53;97094.69;;;14.52;100.00
70304;BME280;57712;48.752;11.348;2023-05-10T08:26:20;97105.13;;;14.57;100.00
70304;BME280;57712;48.752;11.348;2023-05-10T08:28:48;97103.00;;;14.61;100.00
70304;BME280;57712;48.752;11.348;2023-05-10T08:31:14;97107.03;;;14.87;100.00
70304;BME280;57712;48.752;11.348;2023-05-10T08:33:41;97102.63;;;15.17;100.00
70304;BME280;57712;48.752;11.348;2023-05-10T08:36:10;97099.38;;;15.00;100.00
70304;BME280;57712;48.752;11.348;2023-05-10T08:38:37;97104.28;;;14.87;100.00
70304;BME280;57712;48.752;11.348;2023-05-10T08:41:05;97097.88;;;14.90;100.00
70304;BME280;57712;48.752;11.348;2023-05-10T08:43:31;97096.03;;;14.96;100.00
70304;BME280;57712;48.752;11.348;2023-05-10T08:46:00;97099.72;;;15.48;100.00
70304;BME280;57712;48.752;11.348;2023-05-10T08:48:29;97102.19;;;15.46;100.00
70304;BME280;57712;48.752;11.348;2023-05-10T08:50:58;97111.34;;;15.52;100.00
70304;BME280;57712;48.752;11.348;2023-05-10T08:53:28;97105.78;;;16.07;100.00
70304;BME280;57712;48.752;11.348;2023-05-10T08:55:56;97106.50;;;16.59;100.00
70304;BME280;57712;48.752;11.348;2023-05-10T08:58:23;97096.44;;;16.47;100.00
70304;BME280;57712;48.752;11.348;2023-05-10T09:00:50;97107.59;;;16.53;100.00
70304;BME280;57712;48.752;11.348;2023-05-10T09:03:18;97104.97;;;16.58;100.00
70304;BME280;57712;48.752;11.348;2023-05-10T09:05:44;97107.50;;;16.80;100.00
70304;BME280;57712;48.752;11.348;2023-05-10T09:08:11;97111.59;;;16.52;100.00
70304;BME280;57712;48.752;11.348;2023-05-10T09:10:39;97104.84;;;16.53;100.00
70304;BME280;57712;48.752;11.348;2023-05-10T09:13:10;97098.22;;;16.59;100.00
70304;BME280;57712;48.752;11.348;2023-05-10T09:15:37;97109.63;;;17.09;100.00
70304;BME280;57712;48.752;11.348;2023-05-10T09:18:04;97102.00;;;16.95;100.00
70304;BME280;57712;48.752;11.348;2023-05-10T09:20:31;97107.78;;;17.06;100.00
70304;BME280;57712;48.752;11.348;2023-05-10T09:22:58;97102.69;;;17.67;100.00
70304;BME280;57712;48.752;11.348;2023-05-10T09:25:24;97110.94;;;17.38;100.00
70304;BME280;57712;48.752;11.348;2023-05-10T09:27:51;97111.16;;;17.49;100.00
70304;BME280;57712;48.752;11.348;2023-05-10T09:30:31;97101.09;;;17.37;100.00
70304;BME280;57712;48.752;11.348;2023-05-10T09:33:00;97106.84;;;17.09;100.00
70304;BME280;57712;48.752;11.348;2023-05-10T09:35:28;97111.44;;;16.88;100.00
70304;BME280;57712;48.752;11.348;2023-05-10T09:37:58;97110.03;;;16.69;100.00
70304;BME280;57712;48.752;11.348;2023-05-10T09:40:27;97108.00;;;17.56;100.00
70304;BME280;57712;48.752;11.348;2023-05-10T09:45:27;97105.59;;;17.87;100.00
70304;BME280;57712;48.752;11.348;2023-05-10T09:47:55;97095.53;;;18.20;100.00
70304;BME280;57712;48.752;11.348;2023-05-10T09:50:22;97110.13;;;18.64;100.00
70304;BME280;57712;48.752;11.348;2023-05-10T09:55:42;97102.53;;;17.85;100.00
70304;BME280;57712;48.752;11.348;2023-05-10T09:58:12;97105.97;;;18.25;100.00
70304;BME280;57712;48.752;11.348;2023-05-10T10:00:42;97100.25;;;17.99;100.00
70304;BME280;57712;48.752;11.348;2023-05-10T10:03:18;97107.69;;;18.07;100.00
70304;BME280;57712;48.752;11.348;2023-05-10T10:05:46;97100.63;;;17.77;100.00
70304;BME280;57712;48.752;11.348;2023-05-10T10:08:14;97100.06;;;18.17;100.00
70304;BME280;57712;48.752;11.348;2023-05-10T10:10:41;97089.50;;;19.06;100.00
70304;BME280;57712;48.752;11.348;2023-05-10T10:13:08;97088.28;;;19.53;100.00
70304;BME280;57712;48.752;11.348;2023-05-10T10:15:35;97080.66;;;18.67;100.00
70304;BME280;57712;48.752;11.348;2023-05-10T10:18:03;97085.97;;;18.21;100.00
70304;BME280;57712;48.752;11.348;2023-05-10T10:20:31;97096.16;;;18.59;100.00
70304;BME280;57712;48.752;11.348;2023-05-10T10:22:58;97099.59;;;18.54;100.00
70304;BME280;57712;48.752;11.348;2023-05-10T10:25:25;97089.34;;;17.80;100.00
70304;BME280;57712;48.752;11.348;2023-05-10T10:30:41;97091.97;;;17.60;100.00
70304;BME280;57712;48.752;11.348;2023-05-10T10:33:24;97092.50;;;17.35;100.00
70304;BME280;57712;48.752;11.348;2023-05-10T10:35:59;97083.94;;;17.47;100.00
70304;BME280;57712;48.752;11.348;2023-05-10T10:52:13;97088.78;;;18.70;100.00
70304;BME280;57712;48.752;11.348;2023-05-10T10:54:49;97095.06;;;18.36;100.00
70304;BME280;57712;48.752;11.348;2023-05-10T10:57:18;97091.47;;;17.85;100.00
70304;BME280;57712;48.752;11.348;2023-05-10T10:59:45;97082.59;;;17.43;100.00
70304;BME280;57712;48.752;11.348;2023-05-10T11:10:36;97090.88;;;18.11;100.00
70304;BME280;57712;48.752;11.348;2023-05-10T11:15:34;97095.28;;;17.88;100.00
70304;BME280;57712;48.752;11.348;2023-05-10T11:18:20;97092.47;;;16.96;100.00
70304;BME280;57712;48.752;11.348;2023-05-10T11:20:56;97104.03;;;16.28;100.00
70304;BME280;57712;48.752;11.348;2023-05-10T11:23:29;97105.38;;;16.33;100.00
70304;BME280;57712;48.752;11.348;2023-05-10T11:25:56;97109.66;;;15.92;100.00
70304;BME280;57712;48.752;11.348;2023-05-10T11:28:23;97099.72;;;15.57;100.00
70304;BME280;57712;48.752;11.348;2023-05-10T11:30:50;97113.25;;;15.65;100.00
70304;BME280;57712;48.752;11.348;2023-05-10T11:33:19;97109.22;;;15.56;100.00
70304;BME280;57712;48.752;11.348;2023-05-10T11:35:46;97109.38;;;15.44;100.00
70304;BME280;57712;48.752;11.348;2023-05-10T11:38:13;97106.63;;;15.53;100.00
70304;BME280;57712;48.752;11.348;2023-05-10T11:40:40;97119.97;;;15.36;100.00
70304;BME280;57712;48.752;11.348;2023-05-10T11:43:08;97106.47;;;15.56;100.00
70304;BME280;57712;48.752;11.348;2023-05-10T11:45:36;97102.47;;;15.57;100.00
70304;BME280;57712;48.752;11.348;2023-05-10T11:48:03;97104.00;;;15.40;100.00
70304;BME280;57712;48.752;11.348;2023-05-10T11:50:30;97109.53;;;15.86;100.00
70304;BME280;57712;48.752;11.348;2023-05-10T11:52:58;97110.78;;;15.67;100.00
70304;BME280;57712;48.752;11.348;2023-05-10T11:55:25;97107.06;;;15.88;100.00
70304;BME280;57712;48.752;11.348;2023-05-10T11:57:53;97102.84;;;16.53;100.00
70304;BME280;57712;48.752;11.348;2023-05-10T12:00:21;97101.84;;;16.32;100.00
70304;BME280;57712;48.752;11.348;2023-05-10T12:02:48;97097.56;;;16.64;100.00
70304;BME280;57712;48.752;11.348;2023-05-10T12:05:15;97091.78;;;17.64;100.00
70304;BME280;57712;48.752;11.348;2023-05-10T12:07:42;97096.81;;;17.50;100.00
70304;BME280;57712;48.752;11.348;2023-05-10T12:10:11;97104.94;;;18.72;100.00
70304;BME280;57712;48.752;11.348;2023-05-10T12:12:46;97100.00;;;19.83;100.00
70304;BME280;57712;48.752;11.348;2023-05-10T12:15:19;97099.38;;;18.72;100.00
70304;BME280;57712;48.752;11.348;2023-05-10T12:17:47;97098.44;;;18.60;100.00
70304;BME280;57712;48.752;11.348;2023-05-10T12:20:19;97093.69;;;18.46;100.00
70304;BME280;57712;48.752;11.348;2023-05-10T12:22:50;97092.59;;;18.08;100.00
70304;BME280;57712;48.752;11.348;2023-05-10T12:25:18;97087.03;;;18.73;100.00
70304;BME280;57712;48.752;11.348;2023-05-10T12:27:55;97091.22;;;18.33;100.00
70304;BME280;57712;48.752;11.348;2023-05-10T12:30:24;97100.03;;;18.32;100.00
70304;BME280;57712;48.752;11.348;2023-05-10T12:32:51;97101.56;;;17.88;100.00
70304;BME280;57712;48.752;11.348;2023-05-10T12:35:19;97110.06;;;17.70;100.00
70304;BME280;57712;48.752;11.348;2023-05-10T12:37:50;97107.72;;;17.54;100.00
70304;BME280;57712;48.752;11.348;2023-05-10T12:40:17;97114.31;;;17.56;100.00
70304;BME280;57712;48.752;11.348;2023-05-10T12:42:44;97108.97;;;17.53;100.00
70304;BME280;57712;48.752;11.348;2023-05-10T12:45:13;97113.38;;;16.97;100.00
70304;BME280;57712;48.752;11.348;2023-05-10T12:47:40;97111.22;;;17.40;100.00
70304;BME280;57712;48.752;11.348;2023-05-10T12:50:09;97124.78;;;17.38;100.00
70304;BME280;57712;48.752;11.348;2023-05-10T12:52:36;97123.31;;;17.66;100.00
70304;BME280;57712;48.752;11.348;2023-05-10T12:55:03;97111.13;;;17.73;100.00
70304;BME280;57712;48.752;11.348;2023-05-10T12:57:30;97117.13;;;16.85;100.00
70304;BME280;57712;48.752;11.348;2023-05-10T12:59:57;97113.34;;;17.45;100.00
70304;BME280;57712;48.752;11.348;2023-05-10T13:02:23;97119.13;;;17.71;100.00
70304;BME280;57712;48.752;11.348;2023-05-10T13:04:50;97123.97;;;17.22;100.00
70304;BME280;57712;48.752;11.348;2023-05-10T13:07:17;97120.56;;;17.03;100.00
70304;BME280;57712;48.752;11.348;2023-05-10T13:09:43;97130.34;;;16.90;100.00
70304;BME280;57712;48.752;11.348;2023-05-10T13:12:10;97141.81;;;16.97;100.00
70304;BME280;57712;48.752;11.348;2023-05-10T13:14:37;97158.88;;;16.63;100.00
70304;BME280;57712;48.752;11.348;2023-05-10T13:17:04;97169.31;;;16.26;100.00
70304;BME280;57712;48.752;11.348;2023-05-10T13:19:31;97172.72;;;16.02;100.00
70304;BME280;57712;48.752;11.348;2023-05-10T13:21:57;97172.72;;;15.56;100.00
70304;BME280;57712;48.752;11.348;2023-05-10T13:24:24;97167.50;;;15.49;100.00
70304;BME280;57712;48.752;11.348;2023-05-10T13:26:51;97174.84;;;15.25;100.00
70304;BME280;57712;48.752;11.348;2023-05-10T13:29:17;97167.44;;;15.04;100.00
70304;BME280;57712;48.752;11.348;2023-05-10T13:31:45;97172.06;;;15.16;100.00
70304;BME280;57712;48.752;11.348;2023-05-10T13:34:12;97178.81;;;15.15;100.00
70304;BME280;57712;48.752;11.348;2023-05-10T13:36:39;97186.31;;;15.14;100.00
70304;BME280;57712;48.752;11.348;2023-05-10T13:39:05;97190.88;;;14.99;100.00